Aeroporto :
LOGIN :

Iscrizione | Disclaimer

   EN    FR    IT 

 










Sommario :    VFR   VFR Marginale   IFR   IFR Intensivo   IFR Molto Intensivo
Visibilità : 
Base nubi : 
>= 8 km
>= 3000ft
5 / 8 km
1000 / 3000 ft
1500m / 5 km
500 / 1000 ft
800 / 1500m
200 / 500 ft
< 800m
< 200 ft
Simboli :   Temporali  Nebbia  Neve Forte  Precipitazioni Forti  Vento > 20 kt
SIGMETs :   Varie  Temporali  Ghiacco  Turbolenza  Onda orograficha  Ceneri Vulcaniche






- Altitudine del aeroporto : 336 ft
- Codice IATA : GCI


EGJB - Guernsey

ULTIMO METAR :
  • 131420Z 20018KT 9999 VCSH SCT027 09/05 Q0998

METARs OBSOLETI :
  • 131350Z 20017KT 9999 VCSH BKN023 09/05 Q0999
  • 131320Z 22019KT 9000 -SHRA BKN021 08/06 Q1000
  • 131250Z 23012KT 9999 FEW027 10/03 Q1001
  • 131220Z 24013KT 9999 VCSH FEW026 10/03 Q1001
  • 131150Z 24010KT 9999 VCSH FEW026 10/04 Q1002

TAF TAF EGJB
Valido dal 13 a 15 ore il 14 a 00 ore UTC


131404Z 1315/1400 22015KT 9999 SCT015 BKN025
TEMPO 1315/1317 7000 SHRA BKN015
BECMG 1315/1317 18026G38KT
TEMPO 1317/1320 4000 +RA BKN008
BECMG 1317/1319 25015KT
TEMPO 1320/1400 28022G34KT 5000 SHRA BKN013CB
ATIS : +44 1481 238 957



MetMap, La meteo Aeronautica in un colpo d'occhio ! - Copyright ORBIFLY Dicembre 2007 - Disclaimer

ORBIFLY MET'MAP TEAM :

Programmazione e sviluppo : Alexandra Zaïnal
Concezione e sviluppo : Baudouin d'Aumeries
Co-Programmazione e sviluppo : Marc-Olivier Méhu
Supporto tecnico e logistico : Manuel Goepfert
Aiuto per la traduzione : Arnaldo La Scala

Contatto : metmap@orbifly.com




FONTI E CREDITI :

   NOAA